createdAt,value
2023-01-05T00:01:05.736Z,73.81
2023-01-05T00:03:32.953Z,73.92
2023-01-05T00:06:20.178Z,74.59
2023-01-05T00:08:47.198Z,75.63
2023-01-05T00:11:35.067Z,75.00
2023-01-05T00:14:21.024Z,73.33
2023-01-05T00:17:06.953Z,73.07
2023-01-05T00:19:52.667Z,74.42
2023-01-05T00:22:31.080Z,75.74
2023-01-05T00:24:58.927Z,77.14
2023-01-05T00:27:26.543Z,76.07
2023-01-05T00:29:53.710Z,76.26
2023-01-05T00:32:20.976Z,76.90
2023-01-05T00:34:48.226Z,78.00
2023-01-05T00:37:15.300Z,79.92
2023-01-05T00:39:42.419Z,79.92
2023-01-05T00:42:09.467Z,79.69
2023-01-05T00:44:36.378Z,80.89
2023-01-05T00:47:03.359Z,82.48
2023-01-05T00:49:30.395Z,83.48
2023-01-05T00:51:57.364Z,82.78
2023-01-05T00:54:24.498Z,82.78
2023-01-05T00:56:51.578Z,83.70
2023-01-05T00:59:18.800Z,84.68
2023-01-05T01:01:49.484Z,84.78
2023-01-05T01:04:16.697Z,84.02
2023-01-05T01:06:43.820Z,84.93
2023-01-05T01:09:11.686Z,85.83
2023-01-05T01:11:38.867Z,86.16
2023-01-05T01:14:06.917Z,85.23
2023-01-05T01:16:34.455Z,85.11
2023-01-05T01:19:05.170Z,85.80
2023-01-05T01:21:32.963Z,86.14
2023-01-05T01:24:00.057Z,85.27
2023-01-05T01:26:27.066Z,84.56
2023-01-05T01:28:54.033Z,85.00
2023-01-05T01:31:21.190Z,85.37
2023-01-05T01:33:48.198Z,85.25
2023-01-05T01:36:15.250Z,84.09
2023-01-05T01:38:42.192Z,84.24
2023-01-05T01:41:11.783Z,85.99
2023-01-05T01:43:53.551Z,86.10
2023-01-05T01:46:22.549Z,85.38
2023-01-05T01:49:10.200Z,84.84
2023-01-05T01:51:44.660Z,85.98
2023-01-05T01:54:16.099Z,85.42
2023-01-05T01:56:47.951Z,84.81
2023-01-05T01:59:14.818Z,84.64
2023-01-05T02:01:41.952Z,85.09
2023-01-05T02:04:09.087Z,85.03
2023-01-05T02:06:36.360Z,84.34
2023-01-05T02:09:04.657Z,84.10
2023-01-05T02:11:38.290Z,84.68
2023-01-05T02:14:35.593Z,84.94
2023-01-05T02:17:31.940Z,84.41
2023-01-05T02:20:33.465Z,84.37
2023-01-05T02:23:38.190Z,84.62
2023-01-05T02:26:26.455Z,85.22
2023-01-05T02:29:22.197Z,83.90
2023-01-05T02:31:55.691Z,84.47
2023-01-05T02:34:44.614Z,85.13
2023-01-05T02:37:36.449Z,84.16
2023-01-05T02:40:06.740Z,84.25
2023-01-05T02:42:36.393Z,84.55
2023-01-05T02:45:07.623Z,84.70
2023-01-05T02:47:44.404Z,83.81
2023-01-05T02:50:35.637Z,82.83
2023-01-05T02:53:25.864Z,83.47
2023-01-05T02:55:56.731Z,84.08
2023-01-05T02:58:31.847Z,83.28
2023-01-05T03:01:02.437Z,82.32
2023-01-05T03:03:55.462Z,82.36
2023-01-05T03:06:25.884Z,82.67
2023-01-05T03:08:55.613Z,82.34
2023-01-05T03:11:42.517Z,81.04
2023-01-05T03:14:16.855Z,80.75
2023-01-05T03:16:43.971Z,81.44
2023-01-05T03:19:32.526Z,81.94
2023-01-05T03:22:20.380Z,79.81
2023-01-05T03:25:06.255Z,79.56
2023-01-05T03:27:54.096Z,79.64
2023-01-05T03:30:41.553Z,80.37
2023-01-05T03:33:31.575Z,80.03
2023-01-05T03:35:58.856Z,78.80
2023-01-05T03:38:31.959Z,78.96
2023-01-05T03:41:00.667Z,78.94
2023-01-05T03:43:28.695Z,79.30
2023-01-05T03:45:57.684Z,79.43
2023-01-05T03:48:27.805Z,78.23
2023-01-05T03:50:55.173Z,77.78
2023-01-05T03:53:23.226Z,77.76
2023-01-05T03:55:50.322Z,78.44
2023-01-05T03:58:17.775Z,78.78
2023-01-05T04:00:47.004Z,77.68
2023-01-05T04:03:14.436Z,77.19
2023-01-05T04:05:41.850Z,77.25
2023-01-05T04:08:08.890Z,77.83
2023-01-05T04:10:36.140Z,78.33
2023-01-05T04:13:03.169Z,78.17
2023-01-05T04:15:30.393Z,76.25
2023-01-05T04:17:58.410Z,75.90
2023-01-05T04:20:25.472Z,76.04
2023-01-05T04:22:52.801Z,76.37
2023-01-05T04:25:20.644Z,77.35
2023-01-05T04:27:47.716Z,77.31
2023-01-05T04:30:14.943Z,76.24
2023-01-05T04:32:42.021Z,75.53
2023-01-05T04:35:12.038Z,75.67
2023-01-05T04:37:40.098Z,76.32
2023-01-05T04:40:08.725Z,76.94
2023-01-05T04:42:42.221Z,77.15
2023-01-05T04:45:10.514Z,75.88
2023-01-05T04:47:38.168Z,75.30
2023-01-05T04:50:05.951Z,75.66
2023-01-05T04:52:32.946Z,76.15
2023-01-05T04:55:00.012Z,76.79
2023-01-05T04:57:27.259Z,77.31
2023-01-05T04:59:54.137Z,76.53
2023-01-05T05:02:21.374Z,75.57
2023-01-05T05:04:49.261Z,75.38
2023-01-05T05:07:16.972Z,76.08
2023-01-05T05:09:44.160Z,76.43
2023-01-05T05:12:11.242Z,77.19
2023-01-05T05:14:38.761Z,76.71
2023-01-05T05:17:06.144Z,75.82
2023-01-05T05:19:33.185Z,75.58
2023-01-05T05:22:00.211Z,76.07
2023-01-05T05:24:27.899Z,76.84
2023-01-05T05:26:54.909Z,77.76
2023-01-05T05:29:21.845Z,77.77
2023-01-05T05:31:48.786Z,76.27
2023-01-05T05:34:15.687Z,75.50
2023-01-05T05:36:42.750Z,76.23
2023-01-05T05:39:12.243Z,76.44
2023-01-05T05:41:39.110Z,77.06
2023-01-05T05:44:06.012Z,78.10
2023-01-05T05:46:32.937Z,77.71
2023-01-05T05:49:00.331Z,76.02
2023-01-05T05:51:27.281Z,75.33
2023-01-05T05:53:54.161Z,75.37
2023-01-05T05:56:21.033Z,76.42
2023-01-05T05:58:47.862Z,77.06
2023-01-05T06:01:14.901Z,77.33
2023-01-05T06:03:41.999Z,76.57
2023-01-05T06:06:09.123Z,75.47
2023-01-05T06:08:36.097Z,75.26
2023-01-05T06:11:02.992Z,75.82
2023-01-05T06:13:29.955Z,76.50
2023-01-05T06:15:56.817Z,76.81
2023-01-05T06:18:23.998Z,76.37
2023-01-05T06:20:53.950Z,74.52
2023-01-05T06:23:23.295Z,74.31
2023-01-05T06:25:50.261Z,75.04
2023-01-05T06:28:20.368Z,75.44
2023-01-05T06:30:47.757Z,75.90
2023-01-05T06:33:14.601Z,76.34
2023-01-05T06:35:41.512Z,75.21
2023-01-05T06:38:08.476Z,74.46
2023-01-05T06:40:35.396Z,74.23
2023-01-05T06:43:02.427Z,74.67
2023-01-05T06:45:29.424Z,75.26
2023-01-05T06:47:58.045Z,75.76
2023-01-05T06:50:25.034Z,75.64
2023-01-05T06:52:51.964Z,74.11
2023-01-05T06:55:19.143Z,73.63
2023-01-05T06:57:46.226Z,73.98
2023-01-05T07:00:14.524Z,74.62
2023-01-05T07:02:41.800Z,75.97
2023-01-05T07:05:09.100Z,76.84
2023-01-05T07:07:36.413Z,76.57
2023-01-05T07:10:03.825Z,75.45
2023-01-05T07:12:30.639Z,75.20
2023-01-05T07:14:57.980Z,76.17
2023-01-05T07:17:25.754Z,77.06
2023-01-05T07:19:52.762Z,78.12
2023-01-05T07:22:19.702Z,77.94
2023-01-05T07:24:46.615Z,77.13
2023-01-05T07:27:13.598Z,77.23
2023-01-05T07:29:40.478Z,78.38
2023-01-05T07:32:07.485Z,79.45
2023-01-05T07:34:34.685Z,80.32
2023-01-05T07:37:01.839Z,79.47
2023-01-05T07:39:28.704Z,78.64
2023-01-05T07:41:55.577Z,78.73
2023-01-05T07:44:24.830Z,79.48
2023-01-05T07:46:51.774Z,80.36
2023-01-05T07:49:18.804Z,80.68
2023-01-05T07:51:46.039Z,79.66
2023-01-05T07:54:12.921Z,79.01
2023-01-05T07:56:39.940Z,79.20
2023-01-05T07:59:06.800Z,79.87
2023-01-05T08:01:33.853Z,80.99
2023-01-05T08:04:00.873Z,81.36
2023-01-05T08:06:27.818Z,80.08
2023-01-05T08:08:55.997Z,79.88
2023-01-05T08:11:23.174Z,80.51
2023-01-05T08:14:05.694Z,81.33
2023-01-05T08:16:33.269Z,81.92
2023-01-05T08:19:00.341Z,80.98
2023-01-05T08:21:27.902Z,80.03
2023-01-05T08:23:54.947Z,80.46
2023-01-05T08:26:23.339Z,81.55
2023-01-05T08:28:51.030Z,82.63
2023-01-05T08:31:26.106Z,82.16
2023-01-05T08:33:57.982Z,80.86
2023-01-05T08:36:25.086Z,81.45
2023-01-05T08:38:53.013Z,81.90
2023-01-05T08:41:25.049Z,82.80
2023-01-05T08:43:53.495Z,82.71
2023-01-05T08:46:21.567Z,81.78
2023-01-05T08:48:52.657Z,81.22
2023-01-05T08:51:19.738Z,82.26
2023-01-05T08:53:46.793Z,82.88
2023-01-05T08:56:14.302Z,83.46
2023-01-05T08:58:41.463Z,81.97
2023-01-05T09:01:13.734Z,81.31
2023-01-05T09:03:40.963Z,81.84
2023-01-05T09:06:09.557Z,82.40
2023-01-05T09:08:36.533Z,83.10
2023-01-05T09:11:11.196Z,81.94
2023-01-05T09:13:38.188Z,81.41
2023-01-05T09:16:09.608Z,81.51
2023-01-05T09:18:36.911Z,82.63
2023-01-05T09:21:06.396Z,82.95
2023-01-05T09:23:33.983Z,82.36
2023-01-05T09:26:23.138Z,81.61
2023-01-05T09:28:50.268Z,81.45
2023-01-05T09:31:19.843Z,82.51
2023-01-05T09:33:47.388Z,83.34
2023-01-05T09:36:15.348Z,82.96
2023-01-05T09:38:47.014Z,82.11
2023-01-05T09:41:20.459Z,81.97
2023-01-05T09:43:50.201Z,82.24
2023-01-05T09:46:19.093Z,82.86
2023-01-05T09:48:48.561Z,83.42
2023-01-05T09:51:15.657Z,82.18
2023-01-05T09:53:42.682Z,81.23
2023-01-05T09:57:07.357Z,81.81
2023-01-05T09:59:23.802Z,82.91
2023-01-05T10:01:51.617Z,84.18
2023-01-05T10:04:24.044Z,83.39
2023-01-05T10:06:56.964Z,81.93
2023-01-05T10:09:25.247Z,81.68
2023-01-05T10:12:18.681Z,82.41
2023-01-05T10:14:56.297Z,83.23
2023-01-05T10:17:41.023Z,84.08
2023-01-05T10:20:17.136Z,82.94
2023-01-05T10:22:51.207Z,82.02
2023-01-05T10:25:31.569Z,81.86
2023-01-05T10:28:10.460Z,82.83
2023-01-05T10:30:47.061Z,83.89
2023-01-05T10:33:52.054Z,83.16
2023-01-05T10:37:07.317Z,82.31
2023-01-05T10:40:08.564Z,82.63
2023-01-05T10:42:55.128Z,83.97
2023-01-05T10:45:24.692Z,84.75
2023-01-05T10:47:54.983Z,84.01
2023-01-05T10:50:41.522Z,83.27
2023-01-05T10:53:13.473Z,84.03
2023-01-05T10:55:55.492Z,84.67
2023-01-05T10:58:32.202Z,85.08
2023-01-05T11:01:25.390Z,83.75
2023-01-05T11:04:34.243Z,83.70
2023-01-05T11:07:07.084Z,84.29
2023-01-05T11:09:40.108Z,85.38
2023-01-05T11:12:19.028Z,85.06
2023-01-05T11:14:58.464Z,83.50
2023-01-05T11:17:28.038Z,82.74
2023-01-05T11:19:58.049Z,83.94
2023-01-05T11:22:37.553Z,84.95
2023-01-05T11:25:25.589Z,85.55
2023-01-05T11:28:19.142Z,84.04
2023-01-05T11:31:05.753Z,84.51
2023-01-05T11:41:07.586Z,85.15
2023-01-05T11:43:34.603Z,85.39
2023-01-05T11:46:03.704Z,86.05
2023-01-05T11:48:33.710Z,86.55
2023-01-05T11:51:01.040Z,85.20
2023-01-05T11:53:34.320Z,84.38
2023-01-05T11:56:20.435Z,84.53
2023-01-05T11:58:49.039Z,85.46
2023-01-05T12:01:31.566Z,84.34
2023-01-05T12:04:32.627Z,83.66
2023-01-05T12:07:02.990Z,84.89
2023-01-05T12:09:42.194Z,86.04
2023-01-05T12:12:26.069Z,85.71
2023-01-05T12:15:05.414Z,85.38
2023-01-05T12:17:54.770Z,85.83
2023-01-05T12:20:44.679Z,86.43
2023-01-05T12:23:49.592Z,85.15
2023-01-05T12:26:26.103Z,84.34
2023-01-05T12:35:27.920Z,82.15
2023-01-05T12:38:01.062Z,82.27
2023-01-05T12:40:53.831Z,82.69
2023-01-05T12:43:33.030Z,82.27
2023-01-05T12:46:38.079Z,81.19
2023-01-05T12:49:08.815Z,81.10
2023-01-05T12:52:15.817Z,81.39
2023-01-05T12:54:46.720Z,80.83
2023-01-05T12:57:17.295Z,80.60
2023-01-05T13:00:00.996Z,80.98
2023-01-05T13:02:31.374Z,81.33
2023-01-05T13:05:03.449Z,81.75
2023-01-05T13:07:43.434Z,80.41
2023-01-05T13:10:20.553Z,79.56
2023-01-05T13:12:48.819Z,80.55
2023-01-05T13:15:22.499Z,81.19
2023-01-05T13:17:50.941Z,81.32
2023-01-05T13:20:41.161Z,80.03
2023-01-05T13:23:12.203Z,80.33
2023-01-05T13:33:36.139Z,80.56
2023-01-05T13:36:41.888Z,80.99
2023-01-05T13:39:42.686Z,82.45
2023-01-05T13:42:17.656Z,81.99
2023-01-05T13:45:09.427Z,81.16
2023-01-05T13:47:46.047Z,82.72
2023-01-05T13:50:29.035Z,83.64
2023-01-05T13:53:07.078Z,83.54
2023-01-05T13:55:37.645Z,81.96
2023-01-05T13:58:28.006Z,82.34
2023-01-05T14:00:55.181Z,82.89
2023-01-05T14:03:29.711Z,83.13
2023-01-05T14:05:58.198Z,82.03
2023-01-05T14:08:29.743Z,80.97
2023-01-05T14:11:13.864Z,81.32
2023-01-05T14:13:47.256Z,82.23
2023-01-05T14:16:44.100Z,82.09
2023-01-05T14:19:27.425Z,80.75
2023-01-05T14:21:56.655Z,81.04
2023-01-05T14:27:09.260Z,82.53
2023-01-05T14:29:45.794Z,81.07
2023-01-05T14:32:20.100Z,79.74
2023-01-05T14:34:52.242Z,80.00
2023-01-05T14:37:24.641Z,81.46
2023-01-05T14:40:00.414Z,81.82
2023-01-05T14:42:40.147Z,80.32
2023-01-05T14:45:10.061Z,80.41
2023-01-05T14:47:41.543Z,81.43
2023-01-05T14:50:29.284Z,83.05
2023-01-05T14:52:56.331Z,82.76
2023-01-05T14:55:38.595Z,82.53
2023-01-05T14:58:11.729Z,83.40
2023-01-05T15:00:57.799Z,84.53
2023-01-05T15:03:39.282Z,84.98
2023-01-05T15:06:10.153Z,83.92
2023-01-05T15:09:16.332Z,83.91
2023-01-05T15:12:24.141Z,85.54
2023-01-05T15:15:03.031Z,86.02
2023-01-05T15:17:41.783Z,84.56
2023-01-05T15:20:41.459Z,84.20
2023-01-05T15:23:18.189Z,84.79
2023-01-05T15:26:02.845Z,85.36
2023-01-05T15:31:38.163Z,83.90
2023-01-05T15:34:27.785Z,84.60
2023-01-05T15:37:15.457Z,85.62
2023-01-05T15:39:53.464Z,84.68
2023-01-05T15:42:30.139Z,84.74
2023-01-05T15:44:58.380Z,85.70
2023-01-05T15:47:26.719Z,86.73
2023-01-05T15:49:58.330Z,85.89
2023-01-05T15:52:35.323Z,86.26
2023-01-05T15:55:12.616Z,86.05
2023-01-05T15:57:39.761Z,86.42
2023-01-05T16:00:27.911Z,86.24
2023-01-05T16:02:55.053Z,84.96
2023-01-05T16:05:24.156Z,85.09
2023-01-05T16:07:58.579Z,85.59
2023-01-05T16:10:42.714Z,86.08
2023-01-05T16:13:30.806Z,84.93
2023-01-05T16:15:59.450Z,84.18
2023-01-05T16:18:34.477Z,84.57
2023-01-05T16:21:06.355Z,85.42
2023-01-05T16:23:45.277Z,84.60
2023-01-05T16:26:17.529Z,83.82
2023-01-05T16:28:45.306Z,83.54
2023-01-05T16:34:16.601Z,84.87
2023-01-05T16:37:16.987Z,83.86
2023-01-05T16:39:44.959Z,82.51
2023-01-05T16:42:39.985Z,82.97
2023-01-05T16:45:19.243Z,83.89
2023-01-05T16:47:46.457Z,84.65
2023-01-05T16:50:20.746Z,83.14
2023-01-05T16:53:05.736Z,82.16
2023-01-05T16:55:35.758Z,82.08
2023-01-05T16:58:04.846Z,82.93
2023-01-05T17:00:33.730Z,83.09
2023-01-05T17:03:31.000Z,81.76
2023-01-05T17:06:01.573Z,81.72
2023-01-05T17:08:31.879Z,82.10
2023-01-05T17:10:59.771Z,83.40
2023-01-05T17:13:38.522Z,83.66
2023-01-05T17:16:06.196Z,81.82
2023-01-05T17:18:33.154Z,81.56
2023-01-05T17:21:03.036Z,82.21
2023-01-05T17:23:33.652Z,83.14
2023-01-05T17:26:06.603Z,83.49
2023-01-05T17:28:33.556Z,82.18
2023-01-05T17:31:00.655Z,81.52
2023-01-05T17:33:27.966Z,81.97
2023-01-05T17:35:55.021Z,82.81
2023-01-05T17:38:22.409Z,83.86
2023-01-05T17:40:51.650Z,82.83
2023-01-05T17:43:19.128Z,81.98
2023-01-05T17:45:46.205Z,82.05
2023-01-05T17:48:15.178Z,82.60
2023-01-05T17:50:42.095Z,83.60
2023-01-05T17:53:09.124Z,82.92
2023-01-05T17:55:36.258Z,81.41
2023-01-05T17:58:03.379Z,81.20
2023-01-05T18:00:34.756Z,81.83
2023-01-05T18:03:01.715Z,82.44
2023-01-05T18:05:30.200Z,82.46
2023-01-05T18:07:57.247Z,80.64
2023-01-05T18:10:26.772Z,80.07
2023-01-05T18:12:55.997Z,80.29
2023-01-05T18:15:23.040Z,80.88
2023-01-05T18:17:50.077Z,81.67
2023-01-05T18:20:19.812Z,81.33
2023-01-05T18:22:51.075Z,80.22
2023-01-05T18:25:18.153Z,80.02
2023-01-05T18:27:45.089Z,80.39
2023-01-05T18:30:12.647Z,80.97
2023-01-05T18:32:39.759Z,81.35
2023-01-05T18:35:09.892Z,80.05
2023-01-05T18:37:39.004Z,79.64
2023-01-05T18:40:09.579Z,80.41
2023-01-05T18:42:37.208Z,81.23
2023-01-05T18:45:18.900Z,81.89
2023-01-05T18:47:56.354Z,81.44
2023-01-05T18:50:23.854Z,80.24
2023-01-05T18:52:50.895Z,80.38
2023-01-05T18:55:18.234Z,81.32
2023-01-05T18:57:45.202Z,81.98
2023-01-05T19:00:12.986Z,81.98
2023-01-05T19:02:40.451Z,80.69
2023-01-05T19:05:11.494Z,80.59
2023-01-05T19:07:39.873Z,80.82
2023-01-05T19:10:07.254Z,81.56
2023-01-05T19:12:34.428Z,81.63
2023-01-05T19:15:01.472Z,80.21
2023-01-05T19:17:28.516Z,79.23
2023-01-05T19:19:57.670Z,79.35
2023-01-05T19:22:24.732Z,80.20
2023-01-05T19:24:52.361Z,81.13
2023-01-05T19:27:22.085Z,80.93
2023-01-05T19:29:48.987Z,79.95
2023-01-05T19:32:15.910Z,79.85
2023-01-05T19:34:42.921Z,80.17
2023-01-05T19:37:09.866Z,81.07
2023-01-05T19:39:36.798Z,81.64
2023-01-05T19:42:03.809Z,80.19
2023-01-05T19:44:31.082Z,79.35
2023-01-05T19:46:58.103Z,79.72
2023-01-05T19:49:26.214Z,80.74
2023-01-05T19:51:53.147Z,81.49
2023-01-05T19:54:22.203Z,81.73
2023-01-05T19:56:49.418Z,80.67
2023-01-05T19:59:22.148Z,80.08
2023-01-05T20:01:49.187Z,80.51
2023-01-05T20:04:16.342Z,80.83
2023-01-05T20:06:45.208Z,81.85
2023-01-05T20:09:17.839Z,81.50
2023-01-05T20:11:51.706Z,80.41
2023-01-05T20:14:21.129Z,80.04
2023-01-05T20:16:49.709Z,81.12
2023-01-05T20:19:18.966Z,81.40
2023-01-05T20:21:47.283Z,82.09
2023-01-05T20:24:18.642Z,81.16
2023-01-05T20:26:46.819Z,80.46
2023-01-05T20:29:14.773Z,80.70
2023-01-05T20:31:44.225Z,81.11
2023-01-05T20:34:14.582Z,82.26
2023-01-05T20:36:41.638Z,82.25
2023-01-05T20:39:09.296Z,80.90
2023-01-05T20:41:39.382Z,80.66
2023-01-05T20:44:06.607Z,81.42
2023-01-05T20:46:36.278Z,82.80
2023-01-05T20:49:03.448Z,83.58
2023-01-05T20:51:30.453Z,82.92
2023-01-05T20:53:58.485Z,81.91
2023-01-05T20:56:26.853Z,82.03
2023-01-05T20:58:54.253Z,82.85
2023-01-05T21:01:21.709Z,84.29
2023-01-05T21:03:50.257Z,84.88
2023-01-05T21:06:17.820Z,83.53
2023-01-05T21:08:51.334Z,82.86
2023-01-05T21:11:18.615Z,83.66
2023-01-05T21:13:47.212Z,84.92
2023-01-05T21:16:23.339Z,85.83
2023-01-05T21:18:50.430Z,84.22
2023-01-05T21:21:19.258Z,83.87
2023-01-05T21:23:47.588Z,84.15
2023-01-05T21:26:15.829Z,84.85
2023-01-05T21:28:43.198Z,86.17
2023-01-05T21:31:15.455Z,85.07
2023-01-05T21:33:42.638Z,84.25
2023-01-05T21:36:14.786Z,84.45
2023-01-05T21:39:01.763Z,84.72
2023-01-05T21:41:47.499Z,85.66
2023-01-05T21:44:17.309Z,84.31
2023-01-05T21:46:44.390Z,83.72
2023-01-05T21:49:11.662Z,84.33
2023-01-05T21:51:57.306Z,84.65
2023-01-05T21:54:43.249Z,84.51
2023-01-05T21:57:10.325Z,83.45
2023-01-05T21:59:37.290Z,83.50
2023-01-05T22:02:04.341Z,83.87
2023-01-05T22:04:31.265Z,85.41
2023-01-05T22:06:58.170Z,85.13
2023-01-05T22:09:25.183Z,84.44
2023-01-05T22:11:52.141Z,83.90
2023-01-05T22:14:19.205Z,84.47
2023-01-05T22:16:46.189Z,85.38
2023-01-05T22:19:13.129Z,85.73
2023-01-05T22:21:40.182Z,84.67
2023-01-05T22:24:08.970Z,84.70
2023-01-05T22:26:35.948Z,84.86
2023-01-05T22:29:03.077Z,85.63
2023-01-05T22:31:30.873Z,85.79
2023-01-05T22:33:59.360Z,84.62
2023-01-05T22:36:29.192Z,83.86
2023-01-05T22:38:56.240Z,84.46
2023-01-05T22:41:28.150Z,85.71
2023-01-05T22:43:56.195Z,86.13
2023-01-05T22:46:24.720Z,84.16
2023-01-05T22:48:53.572Z,83.60
2023-01-05T22:51:28.938Z,84.16
2023-01-05T22:53:56.527Z,84.96
2023-01-05T22:56:24.799Z,85.61
2023-01-05T22:58:52.050Z,84.45
2023-01-05T23:01:21.261Z,83.70
2023-01-05T23:03:48.617Z,84.47
2023-01-05T23:06:15.644Z,85.53
2023-01-05T23:08:42.962Z,85.57
2023-01-05T23:11:17.583Z,84.94
2023-01-05T23:13:44.781Z,84.72
2023-01-05T23:16:12.234Z,84.68
2023-01-05T23:18:39.541Z,85.28
2023-01-05T23:21:08.819Z,85.32
2023-01-05T23:23:36.036Z,83.94
2023-01-05T23:26:03.486Z,83.21
2023-01-05T23:28:30.547Z,83.70
2023-01-05T23:30:58.587Z,84.87
2023-01-05T23:33:28.529Z,85.87
2023-01-05T23:35:58.988Z,84.86
2023-01-05T23:38:27.991Z,83.59
2023-01-05T23:41:00.577Z,84.26
2023-01-05T23:43:30.219Z,85.14
2023-01-05T23:46:20.441Z,86.24
2023-01-05T23:48:51.556Z,85.23
2023-01-05T23:51:21.106Z,84.22
2023-01-05T23:53:52.463Z,84.35
2023-01-05T23:56:28.657Z,85.62
2023-01-05T23:59:04.413Z,86.22
